Mound, TX (76558)

10:27 PM CST on December 10, 2016 (GMT -0600)
GATESVILLE, TX (12 Miles SE) | | Change Station

Elev 760 ft 31.34 °N, 97.57 °W | Updated 18 seconds ago

Overcast
Overcast
52.2 °F
Feels Like 52.2 °F
N
1.0
Wind Variable Wind from South
Gusts 13.0 mph

Today
High -- | Low -- °F
--% Chance of Precip.
Yesterday
High -- | Low -- °F
Precip. -- in
Pressure 30.19 in
Visibility -9999.0 miles
Clouds Overcast 1000 ft
Dew Point 48 °F
Humidity 85%
Rainfall 0.00 in
Snow Depth Not available.
7:19 AM 5:28 PM
Waxing Gibbous, 88% visible
METAR KGOP 110415Z AUTO 18008KT OVC010 09/07 A3019 RMK AO2
Pressure 30.19 in
Visibility -9999.0 miles
Clouds Overcast 1000 ft
Dew Point 48 °F
Humidity 85%
Rainfall 0.00 in
Snow Depth Not available.
7:19 AM 5:28 PM
Waxing Gibbous, 88% visible
METAR KGOP 110415Z AUTO 18008KT OVC010 09/07 A3019 RMK AO2

10-Day Weather Forecast

Almanac

Astronomy

Dec. 10, 2016 Rise Set
Actual Time
Civil Twilight
Nautical Twilight
Astronomical Twilight
Moon
Length of Visible Light
Length of Day
Tomorrow will be .
, % of the Moon is Illuminated

Today's Extremes

State Highs State Lows

Community

WunderPhotos

Upload Photos

1,956,705 photos uploaded!

WunderBlog® & News

Nearby

Air Quality

  Air Quality AQ Index Pollutant
Not available.

Snow Depth

Station Depth Elevation

Earthquake Activity

City Distance Mag. Time & Date
Minimum magnitude displayed is 2.5.

Coastal Water Temperatures

Place Temperature

Stations

Nearby Weather Stations

Station Location Temp. Windchill Dew Point Humidity Wind Precip. Elev Updated Type
                   

Watches & Warnings

There are currently no watches in effect.